sensor_id;sensor_type;location;lat;lon;timestamp;pressure;altitude;pressure_sealevel;temperature;humidity
74960;BME280;63518;49.572;1.106;2023-04-25T00:01:41;99146.09;;;6.58;82.79
74960;BME280;63518;49.572;1.106;2023-04-25T00:04:08;99147.56;;;7.12;79.37
74960;BME280;63518;49.572;1.106;2023-04-25T00:06:36;99143.94;;;6.81;81.24
74960;BME280;63518;49.572;1.106;2023-04-25T00:09:04;99123.38;;;6.68;81.15
74960;BME280;63518;49.572;1.106;2023-04-25T00:11:34;99140.41;;;6.85;79.13
74960;BME280;63518;49.572;1.106;2023-04-25T00:14:00;99142.06;;;7.07;78.65
74960;BME280;63518;49.572;1.106;2023-04-25T00:16:29;99128.31;;;6.71;79.59
74960;BME280;63518;49.572;1.106;2023-04-25T00:19:00;99142.53;;;6.63;80.45
74960;BME280;63518;49.572;1.106;2023-04-25T00:21:28;99148.81;;;6.53;80.78
74960;BME280;63518;49.572;1.106;2023-04-25T00:23:55;99150.75;;;6.58;80.19
74960;BME280;63518;49.572;1.106;2023-04-25T00:26:22;99153.81;;;6.82;80.13
74960;BME280;63518;49.572;1.106;2023-04-25T00:28:49;99160.16;;;6.98;79.44
74960;BME280;63518;49.572;1.106;2023-04-25T00:31:16;99155.16;;;6.74;80.97
74960;BME280;63518;49.572;1.106;2023-04-25T00:33:43;99155.72;;;6.76;81.46
74960;BME280;63518;49.572;1.106;2023-04-25T00:36:10;99155.59;;;6.30;83.70
74960;BME280;63518;49.572;1.106;2023-04-25T00:38:37;99156.28;;;6.94;82.22
74960;BME280;63518;49.572;1.106;2023-04-25T00:41:06;99160.41;;;6.91;82.43
74960;BME280;63518;49.572;1.106;2023-04-25T00:43:36;99156.25;;;6.73;81.74
74960;BME280;63518;49.572;1.106;2023-04-25T00:46:03;99161.44;;;6.70;82.06
74960;BME280;63518;49.572;1.106;2023-04-25T00:48:30;99169.47;;;6.97;81.70
74960;BME280;63518;49.572;1.106;2023-04-25T00:50:58;99174.13;;;6.96;80.65
74960;BME280;63518;49.572;1.106;2023-04-25T00:53:27;99167.81;;;7.16;79.83
74960;BME280;63518;49.572;1.106;2023-04-25T00:55:54;99173.56;;;7.40;79.15
74960;BME280;63518;49.572;1.106;2023-04-25T00:58:22;99157.13;;;7.25;78.52
74960;BME280;63518;49.572;1.106;2023-04-25T01:00:51;99155.19;;;7.40;78.51
74960;BME280;63518;49.572;1.106;2023-04-25T01:03:21;99164.81;;;7.23;79.22
74960;BME280;63518;49.572;1.106;2023-04-25T01:05:50;99143.63;;;6.62;82.26
74960;BME280;63518;49.572;1.106;2023-04-25T01:08:17;99137.66;;;6.85;82.86
74960;BME280;63518;49.572;1.106;2023-04-25T01:10:44;99145.28;;;6.68;83.87
74960;BME280;63518;49.572;1.106;2023-04-25T01:13:11;99145.00;;;6.59;86.04
74960;BME280;63518;49.572;1.106;2023-04-25T01:15:38;99157.88;;;6.69;85.84
74960;BME280;63518;49.572;1.106;2023-04-25T01:18:05;99145.88;;;7.16;82.30
74960;BME280;63518;49.572;1.106;2023-04-25T01:20:33;99140.97;;;7.08;81.68
74960;BME280;63518;49.572;1.106;2023-04-25T01:23:00;99144.19;;;6.79;80.74
74960;BME280;63518;49.572;1.106;2023-04-25T01:25:30;99145.06;;;6.90;80.42
74960;BME280;63518;49.572;1.106;2023-04-25T01:27:58;99148.06;;;6.73;80.38
74960;BME280;63518;49.572;1.106;2023-04-25T01:30:29;99135.59;;;6.20;82.66
74960;BME280;63518;49.572;1.106;2023-04-25T01:32:56;99139.72;;;6.22;82.34
74960;BME280;63518;49.572;1.106;2023-04-25T01:35:24;99133.47;;;6.42;81.38
74960;BME280;63518;49.572;1.106;2023-04-25T01:37:51;99142.91;;;5.99;82.37
74960;BME280;63518;49.572;1.106;2023-04-25T01:40:20;99153.34;;;6.02;83.37
74960;BME280;63518;49.572;1.106;2023-04-25T01:42:48;99150.91;;;5.53;85.50
74960;BME280;63518;49.572;1.106;2023-04-25T01:45:16;99152.41;;;5.34;86.40
74960;BME280;63518;49.572;1.106;2023-04-25T01:47:43;99174.75;;;5.26;87.91
74960;BME280;63518;49.572;1.106;2023-04-25T01:50:17;99175.34;;;5.33;87.40
74960;BME280;63518;49.572;1.106;2023-04-25T01:52:44;99182.53;;;5.44;87.52
74960;BME280;63518;49.572;1.106;2023-04-25T01:55:11;99174.25;;;5.34;87.80
74960;BME280;63518;49.572;1.106;2023-04-25T01:57:38;99182.88;;;5.15;88.25
74960;BME280;63518;49.572;1.106;2023-04-25T02:00:06;99179.91;;;5.22;88.65
74960;BME280;63518;49.572;1.106;2023-04-25T02:02:33;99175.28;;;5.28;88.15
74960;BME280;63518;49.572;1.106;2023-04-25T02:05:01;99178.31;;;5.26;88.75
74960;BME280;63518;49.572;1.106;2023-04-25T02:07:27;99177.09;;;5.12;89.14
74960;BME280;63518;49.572;1.106;2023-04-25T02:09:54;99176.75;;;5.03;90.25
74960;BME280;63518;49.572;1.106;2023-04-25T02:12:21;99187.84;;;5.24;88.80
74960;BME280;63518;49.572;1.106;2023-04-25T02:14:48;99181.22;;;5.14;89.12
74960;BME280;63518;49.572;1.106;2023-04-25T02:17:15;99199.88;;;5.22;90.69
74960;BME280;63518;49.572;1.106;2023-04-25T02:19:42;99193.81;;;5.15;90.35
74960;BME280;63518;49.572;1.106;2023-04-25T02:22:09;99196.88;;;5.24;90.63
74960;BME280;63518;49.572;1.106;2023-04-25T02:24:37;99199.03;;;5.22;90.46
74960;BME280;63518;49.572;1.106;2023-04-25T02:27:04;99210.31;;;5.31;90.61
74960;BME280;63518;49.572;1.106;2023-04-25T02:29:31;99194.69;;;5.26;90.60
74960;BME280;63518;49.572;1.106;2023-04-25T02:31:58;99206.06;;;5.50;91.15
74960;BME280;63518;49.572;1.106;2023-04-25T02:34:25;99209.00;;;5.38;91.28
74960;BME280;63518;49.572;1.106;2023-04-25T02:36:52;99202.19;;;5.41;91.52
74960;BME280;63518;49.572;1.106;2023-04-25T02:39:19;99181.69;;;5.38;91.65
74960;BME280;63518;49.572;1.106;2023-04-25T02:41:45;99186.28;;;5.33;91.43
74960;BME280;63518;49.572;1.106;2023-04-25T02:44:12;99186.06;;;5.39;90.87
74960;BME280;63518;49.572;1.106;2023-04-25T02:46:39;99188.75;;;5.34;91.44
74960;BME280;63518;49.572;1.106;2023-04-25T02:49:06;99192.47;;;5.60;91.36
74960;BME280;63518;49.572;1.106;2023-04-25T02:51:33;99185.44;;;5.69;90.95
74960;BME280;63518;49.572;1.106;2023-04-25T02:54:00;99196.78;;;5.51;90.61
74960;BME280;63518;49.572;1.106;2023-04-25T02:56:27;99209.91;;;5.49;91.37
74960;BME280;63518;49.572;1.106;2023-04-25T02:58:54;99204.75;;;5.20;91.55
74960;BME280;63518;49.572;1.106;2023-04-25T03:01:20;99203.50;;;5.33;91.85
74960;BME280;63518;49.572;1.106;2023-04-25T03:03:48;99213.22;;;5.56;91.35
74960;BME280;63518;49.572;1.106;2023-04-25T03:06:15;99212.78;;;5.69;91.45
74960;BME280;63518;49.572;1.106;2023-04-25T03:08:42;99220.53;;;5.88;90.84
74960;BME280;63518;49.572;1.106;2023-04-25T03:11:09;99217.66;;;5.67;91.15
74960;BME280;63518;49.572;1.106;2023-04-25T03:13:37;99222.81;;;5.21;91.27
74960;BME280;63518;49.572;1.106;2023-04-25T03:16:04;99222.84;;;5.64;91.57
74960;BME280;63518;49.572;1.106;2023-04-25T03:18:31;99236.13;;;5.50;91.55
74960;BME280;63518;49.572;1.106;2023-04-25T03:20:58;99238.31;;;5.16;91.37
74960;BME280;63518;49.572;1.106;2023-04-25T03:23:25;99244.63;;;5.16;91.17
74960;BME280;63518;49.572;1.106;2023-04-25T03:25:52;99256.56;;;5.42;91.04
74960;BME280;63518;49.572;1.106;2023-04-25T03:28:19;99251.38;;;5.41;91.82
74960;BME280;63518;49.572;1.106;2023-04-25T03:30:46;99263.53;;;5.55;90.57
74960;BME280;63518;49.572;1.106;2023-04-25T03:33:13;99249.66;;;5.30;91.15
74960;BME280;63518;49.572;1.106;2023-04-25T03:35:40;99269.38;;;5.37;90.78
74960;BME280;63518;49.572;1.106;2023-04-25T03:38:07;99284.25;;;5.19;89.90
74960;BME280;63518;49.572;1.106;2023-04-25T03:40:34;99288.88;;;4.91;90.31
74960;BME280;63518;49.572;1.106;2023-04-25T03:43:01;99274.50;;;5.01;90.56
74960;BME280;63518;49.572;1.106;2023-04-25T03:45:28;99286.56;;;5.05;90.01
74960;BME280;63518;49.572;1.106;2023-04-25T03:47:55;99288.19;;;4.79;90.12
74960;BME280;63518;49.572;1.106;2023-04-25T03:50:22;99307.66;;;5.10;90.50
74960;BME280;63518;49.572;1.106;2023-04-25T03:52:49;99283.47;;;4.97;89.30
74960;BME280;63518;49.572;1.106;2023-04-25T03:55:16;99318.00;;;5.35;89.66
74960;BME280;63518;49.572;1.106;2023-04-25T03:57:43;99320.38;;;4.99;89.56
74960;BME280;63518;49.572;1.106;2023-04-25T04:00:11;99314.19;;;4.60;90.14
74960;BME280;63518;49.572;1.106;2023-04-25T04:02:38;99304.94;;;4.88;90.85
74960;BME280;63518;49.572;1.106;2023-04-25T04:05:07;99310.84;;;5.02;89.03
74960;BME280;63518;49.572;1.106;2023-04-25T04:07:34;99325.69;;;5.11;89.34
74960;BME280;63518;49.572;1.106;2023-04-25T04:10:07;99324.28;;;5.08;88.70
74960;BME280;63518;49.572;1.106;2023-04-25T04:12:34;99331.94;;;4.62;88.30
74960;BME280;63518;49.572;1.106;2023-04-25T04:15:02;99342.34;;;4.87;89.77
74960;BME280;63518;49.572;1.106;2023-04-25T04:17:30;99337.06;;;5.03;88.30
74960;BME280;63518;49.572;1.106;2023-04-25T04:19:57;99345.66;;;5.38;89.21
74960;BME280;63518;49.572;1.106;2023-04-25T04:22:24;99340.59;;;5.25;87.09
74960;BME280;63518;49.572;1.106;2023-04-25T04:24:51;99300.94;;;4.74;88.57
74960;BME280;63518;49.572;1.106;2023-04-25T04:27:19;99334.50;;;4.91;88.81
74960;BME280;63518;49.572;1.106;2023-04-25T04:29:46;99348.53;;;4.78;88.13
74960;BME280;63518;49.572;1.106;2023-04-25T04:32:14;99346.41;;;5.07;87.60
74960;BME280;63518;49.572;1.106;2023-04-25T04:34:41;99351.22;;;5.21;87.36
74960;BME280;63518;49.572;1.106;2023-04-25T04:37:08;99349.81;;;4.97;87.00
74960;BME280;63518;49.572;1.106;2023-04-25T04:39:36;99369.25;;;5.22;87.51
74960;BME280;63518;49.572;1.106;2023-04-25T04:42:03;99372.31;;;5.04;86.29
74960;BME280;63518;49.572;1.106;2023-04-25T04:44:31;99369.19;;;5.17;86.70
74960;BME280;63518;49.572;1.106;2023-04-25T04:47:02;99368.09;;;5.18;86.71
74960;BME280;63518;49.572;1.106;2023-04-25T04:49:33;99364.75;;;4.89;86.18
74960;BME280;63518;49.572;1.106;2023-04-25T04:52:00;99391.06;;;4.96;86.42
74960;BME280;63518;49.572;1.106;2023-04-25T04:54:27;99399.56;;;4.99;87.32
74960;BME280;63518;49.572;1.106;2023-04-25T04:56:54;99409.91;;;5.19;86.08
74960;BME280;63518;49.572;1.106;2023-04-25T04:59:21;99413.47;;;5.19;86.25
74960;BME280;63518;49.572;1.106;2023-04-25T05:01:48;99389.28;;;5.06;85.83
74960;BME280;63518;49.572;1.106;2023-04-25T05:04:15;99409.53;;;5.32;85.65
74960;BME280;63518;49.572;1.106;2023-04-25T05:06:42;99423.91;;;5.22;85.21
74960;BME280;63518;49.572;1.106;2023-04-25T05:09:09;99431.56;;;5.26;86.14
74960;BME280;63518;49.572;1.106;2023-04-25T05:11:36;99426.88;;;4.99;86.07
74960;BME280;63518;49.572;1.106;2023-04-25T05:14:02;99430.19;;;5.01;85.60
74960;BME280;63518;49.572;1.106;2023-04-25T05:16:29;99431.13;;;5.34;85.49
74960;BME280;63518;49.572;1.106;2023-04-25T05:18:57;99401.22;;;4.78;85.82
74960;BME280;63518;49.572;1.106;2023-04-25T05:21:24;99450.69;;;5.26;85.18
74960;BME280;63518;49.572;1.106;2023-04-25T05:23:50;99446.38;;;5.08;85.95
74960;BME280;63518;49.572;1.106;2023-04-25T05:26:18;99454.94;;;4.94;86.51
74960;BME280;63518;49.572;1.106;2023-04-25T05:28:45;99455.22;;;5.15;86.09
74960;BME280;63518;49.572;1.106;2023-04-25T05:31:12;99455.28;;;4.98;84.83
74960;BME280;63518;49.572;1.106;2023-04-25T05:33:39;99463.75;;;4.80;85.26
74960;BME280;63518;49.572;1.106;2023-04-25T05:36:06;99463.78;;;5.24;85.59
74960;BME280;63518;49.572;1.106;2023-04-25T05:38:33;99453.66;;;4.80;84.64
74960;BME280;63518;49.572;1.106;2023-04-25T05:41:00;99472.09;;;4.90;85.67
74960;BME280;63518;49.572;1.106;2023-04-25T05:43:27;99478.19;;;4.75;86.38
74960;BME280;63518;49.572;1.106;2023-04-25T05:45:54;99489.22;;;4.85;86.00
74960;BME280;63518;49.572;1.106;2023-04-25T05:48:21;99485.72;;;5.07;84.91
74960;BME280;63518;49.572;1.106;2023-04-25T05:50:48;99450.78;;;5.09;84.23
74960;BME280;63518;49.572;1.106;2023-04-25T05:53:15;99485.91;;;5.00;84.54
74960;BME280;63518;49.572;1.106;2023-04-25T05:55:42;99462.56;;;4.92;85.56
74960;BME280;63518;49.572;1.106;2023-04-25T05:58:09;99496.94;;;5.10;84.38
74960;BME280;63518;49.572;1.106;2023-04-25T06:00:36;99496.63;;;5.29;84.10
74960;BME280;63518;49.572;1.106;2023-04-25T06:03:03;99514.19;;;5.33;83.86
74960;BME280;63518;49.572;1.106;2023-04-25T06:05:30;99519.53;;;5.22;84.79
74960;BME280;63518;49.572;1.106;2023-04-25T06:07:57;99525.03;;;5.28;83.91
74960;BME280;63518;49.572;1.106;2023-04-25T06:10:25;99519.84;;;5.48;83.78
74960;BME280;63518;49.572;1.106;2023-04-25T06:12:52;99517.19;;;5.31;83.93
74960;BME280;63518;49.572;1.106;2023-04-25T06:15:19;99532.13;;;5.45;83.12
74960;BME280;63518;49.572;1.106;2023-04-25T06:17:49;99531.66;;;5.32;82.94
74960;BME280;63518;49.572;1.106;2023-04-25T06:20:16;99522.91;;;5.30;83.74
74960;BME280;63518;49.572;1.106;2023-04-25T06:22:43;99521.88;;;5.14;83.66
74960;BME280;63518;49.572;1.106;2023-04-25T06:25:10;99517.41;;;5.52;82.87
74960;BME280;63518;49.572;1.106;2023-04-25T06:27:36;99529.84;;;5.37;82.57
74960;BME280;63518;49.572;1.106;2023-04-25T06:30:04;99540.38;;;5.50;82.74
74960;BME280;63518;49.572;1.106;2023-04-25T06:32:31;99532.50;;;5.54;81.90
74960;BME280;63518;49.572;1.106;2023-04-25T06:34:58;99542.19;;;5.67;82.08
74960;BME280;63518;49.572;1.106;2023-04-25T06:37:25;99534.97;;;5.34;81.87
74960;BME280;63518;49.572;1.106;2023-04-25T06:39:51;99550.09;;;5.41;82.18
74960;BME280;63518;49.572;1.106;2023-04-25T06:42:18;99546.00;;;5.44;82.01
74960;BME280;63518;49.572;1.106;2023-04-25T06:44:46;99556.00;;;5.33;82.00
74960;BME280;63518;49.572;1.106;2023-04-25T06:47:13;99560.38;;;5.34;81.84
74960;BME280;63518;49.572;1.106;2023-04-25T06:49:40;99563.13;;;5.56;81.63
74960;BME280;63518;49.572;1.106;2023-04-25T06:52:07;99563.44;;;5.60;81.68
74960;BME280;63518;49.572;1.106;2023-04-25T06:54:34;99571.56;;;5.33;82.31
74960;BME280;63518;49.572;1.106;2023-04-25T06:57:01;99568.41;;;5.63;82.33
74960;BME280;63518;49.572;1.106;2023-04-25T06:59:28;99560.84;;;5.48;81.10
74960;BME280;63518;49.572;1.106;2023-04-25T07:01:55;99580.94;;;5.81;80.15
74960;BME280;63518;49.572;1.106;2023-04-25T07:04:22;99564.59;;;5.64;80.48
74960;BME280;63518;49.572;1.106;2023-04-25T07:06:49;99583.09;;;5.78;81.41
74960;BME280;63518;49.572;1.106;2023-04-25T07:09:16;99578.72;;;5.77;80.65
74960;BME280;63518;49.572;1.106;2023-04-25T07:11:43;99546.28;;;5.64;80.95
74960;BME280;63518;49.572;1.106;2023-04-25T07:14:10;99564.16;;;5.72;80.18
74960;BME280;63518;49.572;1.106;2023-04-25T07:16:36;99542.47;;;5.65;80.55
74960;BME280;63518;49.572;1.106;2023-04-25T07:19:03;99579.19;;;5.96;79.83
74960;BME280;63518;49.572;1.106;2023-04-25T07:21:30;99553.38;;;6.14;79.32
74960;BME280;63518;49.572;1.106;2023-04-25T07:23:57;99590.28;;;5.85;79.00
74960;BME280;63518;49.572;1.106;2023-04-25T07:26:24;99571.88;;;6.02;78.21
74960;BME280;63518;49.572;1.106;2023-04-25T07:28:51;99578.88;;;6.47;78.01
74960;BME280;63518;49.572;1.106;2023-04-25T07:31:18;99578.94;;;6.52;77.28
74960;BME280;63518;49.572;1.106;2023-04-25T07:33:45;99586.78;;;6.43;78.18
74960;BME280;63518;49.572;1.106;2023-04-25T07:36:12;99579.22;;;6.55;77.24
74960;BME280;63518;49.572;1.106;2023-04-25T07:38:39;99590.34;;;6.44;76.40
74960;BME280;63518;49.572;1.106;2023-04-25T07:41:09;99539.88;;;6.02;75.31
74960;BME280;63518;49.572;1.106;2023-04-25T07:43:36;99575.72;;;6.60;75.57
74960;BME280;63518;49.572;1.106;2023-04-25T07:46:06;99548.25;;;6.82;74.53
74960;BME280;63518;49.572;1.106;2023-04-25T07:48:37;99561.63;;;6.78;74.12
74960;BME280;63518;49.572;1.106;2023-04-25T07:51:06;99544.22;;;6.95;73.78
74960;BME280;63518;49.572;1.106;2023-04-25T07:53:34;99572.00;;;7.08;75.18
74960;BME280;63518;49.572;1.106;2023-04-25T07:56:02;99513.38;;;6.35;71.79
74960;BME280;63518;49.572;1.106;2023-04-25T07:58:43;99610.25;;;6.93;69.89
74960;BME280;63518;49.572;1.106;2023-04-25T08:01:17;99604.38;;;7.11;72.11
74960;BME280;63518;49.572;1.106;2023-04-25T08:03:44;99586.53;;;7.04;70.28
74960;BME280;63518;49.572;1.106;2023-04-25T08:06:14;99575.47;;;7.36;69.25
74960;BME280;63518;49.572;1.106;2023-04-25T08:08:46;99574.53;;;7.15;67.43
74960;BME280;63518;49.572;1.106;2023-04-25T08:11:13;99543.00;;;7.17;68.37
74960;BME280;63518;49.572;1.106;2023-04-25T08:13:40;99612.59;;;8.26;66.73
74960;BME280;63518;49.572;1.106;2023-04-25T08:16:11;99626.31;;;8.16;68.23
74960;BME280;63518;49.572;1.106;2023-04-25T08:18:42;99578.94;;;7.68;67.82
74960;BME280;63518;49.572;1.106;2023-04-25T08:21:10;99530.91;;;7.61;66.14
74960;BME280;63518;49.572;1.106;2023-04-25T08:23:41;99611.97;;;8.04;65.77
74960;BME280;63518;49.572;1.106;2023-04-25T08:26:11;99533.28;;;8.40;62.54
74960;BME280;63518;49.572;1.106;2023-04-25T08:28:48;99551.28;;;9.53;61.58
74960;BME280;63518;49.572;1.106;2023-04-25T08:31:16;99548.34;;;9.34;61.05
74960;BME280;63518;49.572;1.106;2023-04-25T08:33:43;99588.84;;;10.82;61.18
74960;BME280;63518;49.572;1.106;2023-04-25T08:36:11;99588.81;;;8.83;59.22
74960;BME280;63518;49.572;1.106;2023-04-25T08:38:40;99585.13;;;7.49;61.43
74960;BME280;63518;49.572;1.106;2023-04-25T08:41:06;99602.03;;;7.88;63.53
74960;BME280;63518;49.572;1.106;2023-04-25T08:43:34;99642.09;;;7.89;63.98
74960;BME280;63518;49.572;1.106;2023-04-25T08:46:01;99633.00;;;7.31;61.79
74960;BME280;63518;49.572;1.106;2023-04-25T08:48:32;99633.91;;;8.77;63.78
74960;BME280;63518;49.572;1.106;2023-04-25T08:51:01;99645.44;;;8.89;61.33
74960;BME280;63518;49.572;1.106;2023-04-25T08:53:31;99650.91;;;9.30;61.13
74960;BME280;63518;49.572;1.106;2023-04-25T08:55:59;99652.00;;;9.44;59.71
74960;BME280;63518;49.572;1.106;2023-04-25T08:58:28;99630.06;;;8.93;63.33
74960;BME280;63518;49.572;1.106;2023-04-25T09:00:55;99663.84;;;8.89;61.88
74960;BME280;63518;49.572;1.106;2023-04-25T09:03:22;99655.16;;;7.61;68.84
74960;BME280;63518;49.572;1.106;2023-04-25T09:05:49;99648.56;;;7.20;69.32
74960;BME280;63518;49.572;1.106;2023-04-25T09:08:16;99661.28;;;6.45;71.31
74960;BME280;63518;49.572;1.106;2023-04-25T09:10:43;99667.81;;;6.66;71.00
74960;BME280;63518;49.572;1.106;2023-04-25T09:13:13;99665.50;;;7.12;72.07
74960;BME280;63518;49.572;1.106;2023-04-25T09:15:52;99668.88;;;8.14;67.47
74960;BME280;63518;49.572;1.106;2023-04-25T09:18:28;99673.16;;;10.49;65.64
74960;BME280;63518;49.572;1.106;2023-04-25T09:21:07;99674.53;;;9.61;62.20
74960;BME280;63518;49.572;1.106;2023-04-25T09:23:45;99676.09;;;9.98;62.38
74960;BME280;63518;49.572;1.106;2023-04-25T09:26:17;99668.34;;;10.10;61.38
74960;BME280;63518;49.572;1.106;2023-04-25T09:28:44;99677.75;;;9.94;61.96
74960;BME280;63518;49.572;1.106;2023-04-25T09:31:21;99695.84;;;8.32;62.50
74960;BME280;63518;49.572;1.106;2023-04-25T09:33:48;99689.31;;;8.58;62.26
74960;BME280;63518;49.572;1.106;2023-04-25T09:36:16;99697.91;;;8.72;61.03
74960;BME280;63518;49.572;1.106;2023-04-25T09:38:45;99702.06;;;9.00;63.95
74960;BME280;63518;49.572;1.106;2023-04-25T09:41:12;99687.63;;;8.42;61.05
74960;BME280;63518;49.572;1.106;2023-04-25T09:43:39;99703.19;;;9.20;63.03
74960;BME280;63518;49.572;1.106;2023-04-25T09:46:10;99711.47;;;8.26;63.43
74960;BME280;63518;49.572;1.106;2023-04-25T09:48:37;99691.47;;;8.41;63.29
74960;BME280;63518;49.572;1.106;2023-04-25T09:51:17;99707.03;;;9.34;61.53
74960;BME280;63518;49.572;1.106;2023-04-25T09:53:45;99699.84;;;9.74;62.04
74960;BME280;63518;49.572;1.106;2023-04-25T09:56:19;99709.78;;;10.55;59.36
74960;BME280;63518;49.572;1.106;2023-04-25T09:58:47;99713.28;;;11.49;56.00
74960;BME280;63518;49.572;1.106;2023-04-25T10:01:14;99701.88;;;11.26;56.15
74960;BME280;63518;49.572;1.106;2023-04-25T10:03:43;99698.06;;;11.22;56.25
74960;BME280;63518;49.572;1.106;2023-04-25T10:06:17;99709.47;;;9.76;55.29
74960;BME280;63518;49.572;1.106;2023-04-25T10:08:49;99700.66;;;9.74;56.06
74960;BME280;63518;49.572;1.106;2023-04-25T10:11:18;99700.16;;;9.11;52.18
74960;BME280;63518;49.572;1.106;2023-04-25T10:13:45;99690.47;;;9.69;53.75
74960;BME280;63518;49.572;1.106;2023-04-25T10:16:12;99705.72;;;11.59;54.58
74960;BME280;63518;49.572;1.106;2023-04-25T10:18:42;99703.69;;;11.07;54.58
74960;BME280;63518;49.572;1.106;2023-04-25T10:21:09;99723.81;;;8.29;59.99
74960;BME280;63518;49.572;1.106;2023-04-25T10:23:37;99722.19;;;8.33;58.50
74960;BME280;63518;49.572;1.106;2023-04-25T10:26:04;99703.94;;;8.74;59.06
74960;BME280;63518;49.572;1.106;2023-04-25T10:28:59;99721.59;;;9.29;57.11
74960;BME280;63518;49.572;1.106;2023-04-25T10:31:29;99716.19;;;10.89;55.49
74960;BME280;63518;49.572;1.106;2023-04-25T10:33:59;99710.00;;;12.47;55.65
74960;BME280;63518;49.572;1.106;2023-04-25T10:36:31;99708.50;;;10.32;55.49
74960;BME280;63518;49.572;1.106;2023-04-25T10:39:03;99721.69;;;10.40;55.80
74960;BME280;63518;49.572;1.106;2023-04-25T10:41:46;99719.97;;;11.03;54.31
74960;BME280;63518;49.572;1.106;2023-04-25T10:44:14;99707.25;;;9.83;54.56
74960;BME280;63518;49.572;1.106;2023-04-25T10:46:44;99736.66;;;10.13;51.82
74960;BME280;63518;49.572;1.106;2023-04-25T10:49:28;99742.38;;;10.92;50.54
74960;BME280;63518;49.572;1.106;2023-04-25T11:00:17;99731.47;;;8.90;58.85
74960;BME280;63518;49.572;1.106;2023-04-25T11:02:51;99729.53;;;11.84;55.99
74960;BME280;63518;49.572;1.106;2023-04-25T11:05:34;99737.41;;;10.39;53.76
74960;BME280;63518;49.572;1.106;2023-04-25T11:08:22;99715.59;;;10.53;53.78
74960;BME280;63518;49.572;1.106;2023-04-25T11:10:55;99726.44;;;10.84;53.49
74960;BME280;63518;49.572;1.106;2023-04-25T11:13:21;99715.84;;;12.46;53.01
74960;BME280;63518;49.572;1.106;2023-04-25T11:15:51;99725.84;;;11.31;45.45
74960;BME280;63518;49.572;1.106;2023-04-25T11:18:37;99722.63;;;11.87;47.37
74960;BME280;63518;49.572;1.106;2023-04-25T11:21:05;99717.78;;;11.98;48.18
74960;BME280;63518;49.572;1.106;2023-04-25T11:23:32;99739.38;;;12.86;47.23
74960;BME280;63518;49.572;1.106;2023-04-25T11:26:00;99731.91;;;14.22;46.43
74960;BME280;63518;49.572;1.106;2023-04-25T11:28:27;99724.88;;;15.74;47.45
74960;BME280;63518;49.572;1.106;2023-04-25T11:30:55;99705.00;;;10.06;48.35
74960;BME280;63518;49.572;1.106;2023-04-25T11:33:25;99722.44;;;12.50;50.43
74960;BME280;63518;49.572;1.106;2023-04-25T11:35:54;99734.09;;;11.65;46.08
74960;BME280;63518;49.572;1.106;2023-04-25T11:38:23;99725.81;;;14.06;45.42
74960;BME280;63518;49.572;1.106;2023-04-25T11:40:52;99745.31;;;12.98;42.89
74960;BME280;63518;49.572;1.106;2023-04-25T11:43:21;99733.75;;;13.67;40.88
74960;BME280;63518;49.572;1.106;2023-04-25T11:45:49;99727.81;;;17.66;42.27
74960;BME280;63518;49.572;1.106;2023-04-25T11:48:17;99732.13;;;12.90;45.77
74960;BME280;63518;49.572;1.106;2023-04-25T11:50:46;99723.59;;;13.90;41.46
74960;BME280;63518;49.572;1.106;2023-04-25T11:53:13;99730.00;;;13.57;45.57
74960;BME280;63518;49.572;1.106;2023-04-25T11:55:40;99727.19;;;13.25;42.71
74960;BME280;63518;49.572;1.106;2023-04-25T11:58:07;99730.25;;;11.95;45.14
74960;BME280;63518;49.572;1.106;2023-04-25T12:00:35;99737.59;;;13.66;41.01
74960;BME280;63518;49.572;1.106;2023-04-25T12:03:02;99726.13;;;15.46;36.76
74960;BME280;63518;49.572;1.106;2023-04-25T12:05:31;99725.28;;;13.58;39.89
74960;BME280;63518;49.572;1.106;2023-04-25T12:08:13;99707.06;;;14.94;40.48
74960;BME280;63518;49.572;1.106;2023-04-25T12:10:45;99728.25;;;15.71;36.95
74960;BME280;63518;49.572;1.106;2023-04-25T12:13:20;99724.41;;;11.39;45.82
74960;BME280;63518;49.572;1.106;2023-04-25T12:15:47;99748.59;;;10.58;50.27
74960;BME280;63518;49.572;1.106;2023-04-25T12:18:14;99741.75;;;11.05;47.81
74960;BME280;63518;49.572;1.106;2023-04-25T12:20:41;99753.59;;;12.56;50.90
74960;BME280;63518;49.572;1.106;2023-04-25T12:23:08;99738.63;;;11.85;43.90
74960;BME280;63518;49.572;1.106;2023-04-25T12:25:44;99733.06;;;16.11;47.72
74960;BME280;63518;49.572;1.106;2023-04-25T12:31:14;99699.38;;;15.28;36.36
74960;BME280;63518;49.572;1.106;2023-04-25T12:33:42;99738.63;;;11.85;43.02
74960;BME280;63518;49.572;1.106;2023-04-25T12:36:10;99741.81;;;10.25;49.30
74960;BME280;63518;49.572;1.106;2023-04-25T12:38:39;99748.50;;;11.91;45.45
74960;BME280;63518;49.572;1.106;2023-04-25T12:41:07;99759.00;;;10.76;48.67
74960;BME280;63518;49.572;1.106;2023-04-25T12:43:34;99733.22;;;12.28;44.96
74960;BME280;63518;49.572;1.106;2023-04-25T12:46:01;99744.13;;;11.22;45.75
74960;BME280;63518;49.572;1.106;2023-04-25T12:48:34;99744.63;;;10.15;48.35
74960;BME280;63518;49.572;1.106;2023-04-25T12:51:02;99753.66;;;10.95;45.16
74960;BME280;63518;49.572;1.106;2023-04-25T12:53:29;99737.94;;;14.52;46.54
74960;BME280;63518;49.572;1.106;2023-04-25T12:56:04;99755.00;;;14.18;40.32
74960;BME280;63518;49.572;1.106;2023-04-25T12:58:32;99746.47;;;16.08;43.60
74960;BME280;63518;49.572;1.106;2023-04-25T13:01:00;99721.38;;;12.46;43.82
74960;BME280;63518;49.572;1.106;2023-04-25T13:03:26;99741.56;;;11.64;45.59
74960;BME280;63518;49.572;1.106;2023-04-25T13:05:54;99743.44;;;18.23;42.33
74960;BME280;63518;49.572;1.106;2023-04-25T13:08:29;99739.81;;;17.32;42.19
74960;BME280;63518;49.572;1.106;2023-04-25T13:10:56;99733.06;;;16.11;33.45
74960;BME280;63518;49.572;1.106;2023-04-25T13:13:23;99745.19;;;16.15;39.75
74960;BME280;63518;49.572;1.106;2023-04-25T13:15:50;99750.78;;;12.37;44.55
74960;BME280;63518;49.572;1.106;2023-04-25T13:18:17;99763.34;;;13.15;44.57
74960;BME280;63518;49.572;1.106;2023-04-25T13:20:54;99745.94;;;14.67;46.68
74960;BME280;63518;49.572;1.106;2023-04-25T13:23:21;99755.28;;;13.70;48.54
74960;BME280;63518;49.572;1.106;2023-04-25T13:25:48;99746.81;;;15.40;46.14